Terminal Aerodrome Forecast
Issued by NWS Bismarck, ND

Home | Current Version | Previous Version | Text Only | Print | Product List | Glossary Off
Versions: 1 2 3 4 5 6 7 8 9 10 11 12 13 14 15 16 17 18 19

000
FTUS43 KBIS 281444 AAC
TAFISN
TAF AMD
KISN 281444Z 2815/2912 02005KT P6SM VCSH BKN009 OVC100
      TEMPO 2815/2817 SCT009 OVC060
     FM281700 07006KT P6SM BKN035
     FM282100 03004KT P6SM VCSH BKN050
     FM282300 01006KT P6SM OVC060=

USA.gov is the U.S. government's official web portal to all federal, state and local government web resources and services.